Time;durP1;ratioP1;P1;durP2;ratioP2;P2;SDS_P1;SDS_P2;PMS_P1;PMS_P2;Temp;Humidity;BMP_temperature;BMP_pressure;BME280_temperature;BME280_humidity;BME280_pressure;Samples;Min_cycle;Max_cycle;Signal;HPM_P1;HPM_P2
2022/05/20 00:00:21;;;;;;;5.25;4.47;;;;;;;16.51;100.00;99482.44;5130398;27;20435;-75
2022/05/20 00:02:48;;;;;;;9.13;3.90;;;;;;;16.59;100.00;99482.22;5129300;27;20156;-75
2022/05/20 00:05:15;;;;;;;8.50;4.40;;;;;;;16.63;100.00;99494.47;5125022;27;20482;-75
2022/05/20 00:07:41;;;;;;;8.65;4.28;;;;;;;16.56;100.00;99493.66;5130406;27;20050;-75
2022/05/20 00:10:11;;;;;;;9.23;4.07;;;;;;;16.52;100.00;99483.31;5131487;27;20051;-75
2022/05/20 00:12:38;;;;;;;5.00;3.97;;;;;;;16.54;100.00;99482.03;5129873;27;20504;-75
2022/05/20 00:15:07;;;;;;;7.35;3.92;;;;;;;16.62;100.00;99480.97;5131334;27;20434;-76
2022/05/20 00:17:33;;;;;;;6.43;3.88;;;;;;;16.46;100.00;99468.56;5130452;27;20049;-75
2022/05/20 00:20:00;;;;;;;5.85;3.75;;;;;;;16.48;100.00;99473.81;5128591;27;20162;-75
2022/05/20 00:22:27;;;;;;;5.68;3.90;;;;;;;16.63;100.00;99471.66;5122605;27;20058;-75
2022/05/20 00:27:39;;;;;;;5.40;3.50;;;;;;;16.31;100.00;99463.31;5129791;27;20054;-75
2022/05/20 00:30:07;;;;;;;8.52;3.70;;;;;;;16.44;100.00;99482.50;5131183;27;20047;-75
2022/05/20 00:32:33;;;;;;;4.43;3.58;;;;;;;16.37;100.00;99458.88;5130824;27;20051;-75
2022/05/20 00:35:00;;;;;;;5.15;3.45;;;;;;;16.37;100.00;99461.63;5127447;27;20059;-76
2022/05/20 00:37:26;;;;;;;5.50;2.95;;;;;;;16.45;100.00;99469.59;5124263;27;20043;-75
2022/05/20 00:39:53;;;;;;;7.10;3.50;;;;;;;16.45;100.00;99473.22;5121184;27;20039;-76
2022/05/20 00:42:20;;;;;;;4.32;3.38;;;;;;;16.23;100.00;99460.81;5129442;27;20047;-76
2022/05/20 00:44:48;;;;;;;5.75;3.75;;;;;;;16.39;100.00;99463.06;5131018;27;20043;-75
2022/05/20 00:47:15;;;;;;;5.35;3.70;;;;;;;16.23;100.00;99450.69;5119070;27;20147;-76
2022/05/20 00:49:46;;;;;;;5.05;3.50;;;;;;;16.14;100.00;99456.59;5126034;27;20051;-75
2022/05/20 00:52:16;;;;;;;7.38;4.18;;;;;;;16.22;100.00;99456.38;5113908;27;20051;-75
2022/05/20 00:54:52;;;;;;;10.10;4.30;;;;;;;16.32;100.00;99456.78;5119809;27;20036;-76
2022/05/20 00:57:23;;;;;;;4.47;3.90;;;;;;;16.32;100.00;99453.16;5121560;27;20039;-75
2022/05/20 00:59:55;;;;;;;7.78;4.38;;;;;;;16.33;100.00;99444.72;5129823;27;20045;-75
2022/05/20 01:02:23;;;;;;;14.68;4.90;;;;;;;16.29;100.00;99454.47;5125583;27;20046;-75
2022/05/20 01:04:51;;;;;;;5.40;3.97;;;;;;;16.36;100.00;99448.94;5130243;27;20047;-75
2022/05/20 01:07:19;;;;;;;6.15;3.55;;;;;;;16.31;100.00;99454.25;5129482;27;20054;-75
2022/05/20 01:09:46;;;;;;;6.47;3.97;;;;;;;16.15;100.00;99426.22;5125426;27;20043;-75
2022/05/20 01:12:13;;;;;;;6.50;4.65;;;;;;;16.22;100.00;99435.25;5128275;27;20047;-75
2022/05/20 01:14:39;;;;;;;10.00;4.10;;;;;;;16.35;100.00;99452.75;5129360;27;20062;-75
2022/05/20 01:17:09;;;;;;;8.30;4.20;;;;;;;16.38;100.00;99453.16;5124278;27;20458;-75
2022/05/20 01:19:38;;;;;;;5.72;3.88;;;;;;;16.22;100.00;99445.41;5128372;27;20061;-75
2022/05/20 01:22:07;;;;;;;8.27;4.80;;;;;;;16.18;100.00;99455.94;5128435;27;20510;-75
2022/05/20 01:24:35;;;;;;;8.45;4.72;;;;;;;16.31;100.00;99451.50;5119799;27;20039;-75
2022/05/20 01:27:02;;;;;;;7.82;4.55;;;;;;;16.18;100.00;99447.72;5129373;27;20122;-75
2022/05/20 01:29:28;;;;;;;5.95;4.07;;;;;;;16.05;100.00;99437.63;5123557;27;20062;-75
2022/05/20 01:31:55;;;;;;;8.35;4.78;;;;;;;16.16;100.00;99449.84;5127456;27;20058;-75
2022/05/20 01:34:22;;;;;;;6.95;4.28;;;;;;;16.14;100.00;99441.00;5123199;27;20054;-75
2022/05/20 01:36:48;;;;;;;8.45;4.53;;;;;;;16.03;100.00;99437.03;5124848;27;20057;-75
2022/05/20 01:39:16;;;;;;;9.98;4.20;;;;;;;16.13;100.00;99450.28;5125336;27;20398;-75
2022/05/20 01:41:51;;;;;;;16.33;4.85;;;;;;;16.15;100.00;99437.19;5129378;27;20489;-76
2022/05/20 01:44:21;;;;;;;7.63;4.82;;;;;;;16.14;100.00;99432.78;5127011;27;20383;-75
2022/05/20 01:46:57;;;;;;;11.65;3.85;;;;;;;16.02;100.00;99429.00;5126709;27;20054;-75
2022/05/20 01:49:37;;;;;;;16.52;4.60;;;;;;;16.08;100.00;99439.13;5123316;27;20490;-76
2022/05/20 01:52:11;;;;;;;10.73;4.60;;;;;;;16.05;100.00;99429.41;5125588;27;20496;-76
2022/05/20 01:54:47;;;;;;;8.25;4.72;;;;;;;16.19;100.00;99435.69;5124892;27;20043;-75
2022/05/20 01:57:22;;;;;;;7.88;4.55;;;;;;;16.15;100.00;99430.84;5120077;27;20490;-75
2022/05/20 01:59:52;;;;;;;7.05;4.53;;;;;;;16.18;100.00;99436.75;5123529;27;20040;-75
2022/05/20 02:02:25;;;;;;;10.90;5.07;;;;;;;16.06;100.00;99422.00;5120158;27;20039;-75
2022/05/20 02:04:56;;;;;;;7.60;4.93;;;;;;;16.13;100.00;99446.69;5120601;27;20047;-75
2022/05/20 02:07:29;;;;;;;7.15;5.03;;;;;;;16.10;100.00;99434.25;5119912;27;20054;-75
2022/05/20 02:10:02;;;;;;;9.25;4.63;;;;;;;16.19;100.00;99440.34;5129330;27;20043;-76
2022/05/20 02:12:36;;;;;;;7.75;4.22;;;;;;;16.08;100.00;99436.38;5126757;27;20057;-75
2022/05/20 02:15:07;;;;;;;9.90;4.78;;;;;;;16.07;100.00;99429.19;5126247;27;20050;-75
2022/05/20 02:17:36;;;;;;;12.50;4.70;;;;;;;16.12;100.00;99432.13;5128343;27;20046;-75
2022/05/20 02:20:08;;;;;;;7.85;4.18;;;;;;;16.07;100.00;99423.72;5132338;27;20050;-75
2022/05/20 02:22:38;;;;;;;12.35;4.78;;;;;;;16.12;100.00;99426.63;5129528;27;20042;-75
2022/05/20 02:25:06;;;;;;;;;;;;;;;16.10;100.00;99440.56;5130027;27;20047;-75
2022/05/20 02:27:37;;;;;;;13.50;4.97;;;;;;;16.12;100.00;99445.84;5131606;27;20230;-76
2022/05/20 02:30:08;;;;;;;5.97;4.88;;;;;;;16.16;100.00;99443.53;5130561;27;20055;-75
2022/05/20 02:32:40;;;;;;;9.40;4.65;;;;;;;16.19;100.00;99432.13;5130680;27;20125;-75
2022/05/20 02:35:07;;;;;;;8.13;4.78;;;;;;;16.12;100.00;99432.13;5120994;27;20074;-75
2022/05/20 02:37:36;;;;;;;10.43;4.90;;;;;;;16.21;100.00;99452.81;5130149;27;20039;-75
2022/05/20 02:40:05;;;;;;;8.75;4.80;;;;;;;16.21;100.00;99452.81;5119670;28;20047;-75
2022/05/20 02:42:33;;;;;;;6.03;4.75;;;;;;;16.15;100.00;99450.88;5130663;27;20050;-75
2022/05/20 02:45:01;;;;;;;7.15;4.70;;;;;;;16.03;100.00;99430.66;5130174;27;20043;-75
2022/05/20 02:47:31;;;;;;;12.80;5.25;;;;;;;16.04;100.00;99444.16;5130429;27;20051;-75
2022/05/20 02:49:57;;;;;;;;;;;;;;;15.98;100.00;99441.44;5131930;27;20134;-75
2022/05/20 02:52:24;;;;;;;7.43;4.32;;;;;;;15.92;100.00;99432.16;5134497;27;20354;-75
2022/05/20 02:54:50;;;;;;;7.63;4.90;;;;;;;15.92;100.00;99429.44;5134235;27;20043;-75
2022/05/20 02:57:17;;;;;;;6.97;4.93;;;;;;;15.97;100.00;99447.97;5134051;27;20050;-75
2022/05/20 03:05:15;;;;;;;9.23;4.47;;;;;;;16.05;100.00;99434.06;5127257;27;20047;-76
2022/05/20 03:07:41;;;;;;;6.97;5.10;;;;;;;15.93;100.00;99415.50;5133428;27;20050;-76
2022/05/20 03:10:09;;;;;;;6.93;4.70;;;;;;;15.95;100.00;99420.78;5135037;27;20490;-76
2022/05/20 03:12:35;;;;;;;6.82;4.60;;;;;;;16.05;100.00;99437.63;5133232;27;20258;-76
2022/05/20 03:15:04;;;;;;;8.00;4.75;;;;;;;16.05;100.00;99445.88;5133865;27;20119;-76
2022/05/20 03:17:30;;;;;;;7.85;4.63;;;;;;;16.08;100.00;99442.69;5132819;27;20050;-76
2022/05/20 03:19:57;;;;;;;7.80;4.30;;;;;;;16.02;100.00;99437.22;5124865;27;20042;-76
2022/05/20 03:22:23;;;;;;;7.78;4.47;;;;;;;16.06;100.00;99444.81;5126510;27;20074;-75
2022/05/20 03:24:50;;;;;;;7.85;4.63;;;;;;;16.04;100.00;99443.34;5132846;27;20051;-76
2022/05/20 03:27:17;;;;;;;4.97;4.18;;;;;;;15.97;100.00;99428.78;5134385;27;20054;-76
2022/05/20 03:29:44;;;;;;;10.77;4.88;;;;;;;16.03;100.00;99426.06;5135057;27;20047;-76
2022/05/20 03:32:11;;;;;;;7.22;4.38;;;;;;;16.10;100.00;99432.34;5126287;27;20048;-76
2022/05/20 03:34:38;;;;;;;7.72;4.28;;;;;;;16.07;100.00;99426.44;5126413;27;20054;-76
2022/05/20 03:37:06;;;;;;;11.05;4.78;;;;;;;16.03;100.00;99423.31;5134600;27;20082;-76
2022/05/20 03:39:35;;;;;;;7.55;4.82;;;;;;;16.04;100.00;99441.44;5136613;27;20043;-76
2022/05/20 03:42:02;;;;;;;9.63;4.97;;;;;;;16.14;100.00;99432.78;5136069;27;20045;-76
2022/05/20 03:44:28;;;;;;;12.02;5.25;;;;;;;16.18;100.00;99438.66;5136249;27;20055;-76
2022/05/20 03:46:56;;;;;;;8.40;4.03;;;;;;;16.11;100.00;99433.19;5136295;27;20509;-76
2022/05/20 03:49:26;;;;;;;8.40;4.57;;;;;;;16.17;100.00;99446.06;5136633;27;20047;-76
2022/05/20 03:51:53;;;;;;;7.97;5.47;;;;;;;16.08;100.00;99437.22;5127159;27;20058;-76
2022/05/20 03:54:23;;;;;;;8.95;4.50;;;;;;;16.21;100.00;99449.19;5135374;27;20047;-76
2022/05/20 03:56:49;;;;;;;8.13;4.93;;;;;;;16.14;100.00;99431.91;5135987;27;20070;-76
2022/05/20 03:59:16;;;;;;;10.55;5.10;;;;;;;16.24;100.00;99446.03;5133494;27;20051;-76
2022/05/20 04:01:58;;;;;;;13.63;4.72;;;;;;;16.31;100.00;99443.28;5120123;27;20043;-76
2022/05/20 04:04:28;;;;;;;6.28;4.68;;;;;;;16.19;100.00;99426.63;5126976;27;20055;-76
2022/05/20 04:06:55;;;;;;;6.95;4.88;;;;;;;16.33;100.00;99439.25;5135562;27;20049;-76
2022/05/20 04:09:21;;;;;;;6.32;5.13;;;;;;;16.29;100.00;99427.03;5135967;27;20043;-76
2022/05/20 04:11:51;;;;;;;13.48;4.65;;;;;;;16.34;100.00;99431.88;5135493;27;20043;-76
2022/05/20 04:14:17;;;;;;;7.55;4.68;;;;;;;16.36;100.00;99433.31;5134342;27;20047;-75
2022/05/20 04:16:44;;;;;;;9.00;4.55;;;;;;;16.47;100.00;99431.81;5134691;27;20043;-76
2022/05/20 04:19:11;;;;;;;7.45;4.70;;;;;;;16.48;100.00;99433.50;5132879;27;20047;-76
2022/05/20 04:21:41;;;;;;;7.55;4.75;;;;;;;16.41;100.00;99406.09;5132160;27;20050;-76
2022/05/20 04:24:08;;;;;;;7.80;4.40;;;;;;;16.56;100.00;99413.19;5131615;27;20051;-76
2022/05/20 04:26:34;;;;;;;7.03;4.32;;;;;;;16.60;100.00;99423.50;5132429;27;20051;-75
2022/05/20 04:29:01;;;;;;;8.73;4.90;;;;;;;16.56;100.00;99419.53;5133164;27;20058;-76
2022/05/20 04:31:27;;;;;;;10.45;4.95;;;;;;;16.65;100.00;99428.38;5116566;22;20269;-75
2022/05/20 04:33:54;;;;;;;11.95;4.53;;;;;;;16.54;100.00;99404.34;5088140;28;20082;-76
2022/05/20 04:36:20;;;;;;;6.70;4.43;;;;;;;16.62;100.00;99413.19;5085437;28;20047;-76
2022/05/20 04:38:48;;;;;;;8.00;4.82;;;;;;;16.65;100.00;99400.94;5083871;28;20048;-76
2022/05/20 04:46:58;;;;;;;7.07;4.57;;;;;;;16.84;100.00;99415.59;5084142;28;20121;-76
2022/05/20 04:49:25;;;;;;;7.65;4.88;;;;;;;16.83;100.00;99419.41;5086981;28;20114;-75
2022/05/20 04:51:51;;;;;;;9.48;4.28;;;;;;;16.92;100.00;99420.00;5076301;28;20048;-76
2022/05/20 04:57:04;;;;;;;10.98;5.00;;;;;;;17.09;100.00;99423.94;5090870;28;20074;-76
2022/05/20 04:59:35;;;;;;;7.13;4.38;;;;;;;17.05;100.00;99406.19;5090619;28;20047;-76
2022/05/20 05:02:01;;;;;;;6.15;4.35;;;;;;;17.35;100.00;99422.06;5083060;28;20040;-76
2022/05/20 05:04:28;;;;;;;6.80;4.70;;;;;;;17.49;100.00;99420.91;5072894;28;20070;-76
2022/05/20 05:06:54;;;;;;;7.25;4.82;;;;;;;17.73;100.00;99404.59;5077415;28;20041;-76
2022/05/20 05:09:22;;;;;;;4.28;3.85;;;;;;;17.90;100.00;99393.91;5092947;28;20044;-76
2022/05/20 05:11:49;;;;;;;14.27;4.07;;;;;;;18.38;100.00;99419.81;5075871;28;20052;-76
2022/05/20 05:14:16;;;;;;;6.55;4.43;;;;;;;18.40;100.00;99415.78;5078680;28;20132;-75
2022/05/20 05:16:43;;;;;;;7.55;4.30;;;;;;;18.46;100.00;99410.44;5082531;28;20047;-75
2022/05/20 05:19:11;;;;;;;6.72;4.38;;;;;;;18.82;100.00;99428.81;5078665;28;20493;-76
2022/05/20 05:21:38;;;;;;;9.02;3.95;;;;;;;19.19;100.00;99416.88;5073875;28;20079;-76
2022/05/20 05:24:05;;;;;;;7.63;4.10;;;;;;;19.44;100.00;99428.56;5086964;28;20147;-75
2022/05/20 05:26:35;;;;;;;11.05;3.78;;;;;;;19.60;100.00;99409.63;5089601;28;20411;-76
2022/05/20 05:29:02;;;;;;;6.45;4.07;;;;;;;19.61;100.00;99428.69;5079300;28;20052;-76
2022/05/20 05:31:29;;;;;;;6.05;4.07;;;;;;;19.72;100.00;99409.66;5078333;28;20049;-76
2022/05/20 05:33:55;;;;;;;5.60;3.70;;;;;;;19.89;100.00;99432.72;5087756;28;20127;-76
2022/05/20 05:36:22;;;;;;;5.88;4.07;;;;;;;19.88;100.00;99417.25;5081570;28;20040;-76
2022/05/20 05:38:49;;;;;;;10.48;3.92;;;;;;;20.17;100.00;99414.56;5082485;28;20040;-76
2022/05/20 05:41:17;;;;;;;6.95;3.78;;;;;;;20.28;100.00;99443.28;5082077;28;20059;-76
2022/05/20 05:43:46;;;;;;;9.45;3.72;;;;;;;20.10;100.00;99431.28;5083101;28;20052;-76
2022/05/20 05:46:12;;;;;;;8.05;3.53;;;;;;;20.04;100.00;99415.69;5082814;28;20044;-76
2022/05/20 05:48:39;;;;;;;8.30;4.13;;;;;;;20.16;100.00;99437.75;5078293;28;20044;-76
2022/05/20 05:51:06;;;;;;;9.38;4.13;;;;;;;20.20;100.00;99432.59;5083918;28;20491;-77
2022/05/20 05:53:32;;;;;;;7.68;3.78;;;;;;;20.26;100.00;99437.97;5078165;28;20072;-77
2022/05/20 05:56:05;;;;;;;6.75;3.83;;;;;;;20.26;100.00;99418.63;5078846;28;20052;-78
2022/05/20 05:58:33;;;;;;;10.52;4.13;;;;;;;20.42;100.00;99425.34;5076544;28;20109;-77
2022/05/20 06:01:01;;;;;;;5.85;3.55;;;;;;;20.72;100.00;99434.56;5087787;28;20055;-77
2022/05/20 06:03:28;;;;;;;5.68;3.20;;;;;;;20.82;100.00;99434.75;5078389;28;20044;-77
2022/05/20 06:05:55;;;;;;;5.22;3.50;;;;;;;20.98;100.00;99431.19;5085698;28;20291;-77
2022/05/20 06:08:22;;;;;;;6.35;3.92;;;;;;;21.15;100.00;99422.97;5091986;28;20071;-77
2022/05/20 06:10:49;;;;;;;7.90;4.40;;;;;;;21.46;100.00;99415.19;5085761;28;20454;-77
2022/05/20 06:13:22;;;;;;;6.82;3.55;;;;;;;21.46;100.00;99412.44;5086296;28;20040;-77
2022/05/20 06:15:49;;;;;;;5.28;3.38;;;;;;;21.68;100.00;99417.25;5087523;28;20075;-77
2022/05/20 06:18:17;;;;;;;5.13;3.88;;;;;;;21.90;95.33;99432.00;5089266;28;20035;-77
2022/05/20 06:20:44;;;;;;;7.60;3.30;;;;;;;21.81;92.63;99418.84;5082447;28;20123;-77
2022/05/20 06:23:11;;;;;;;8.10;3.67;;;;;;;21.91;95.68;99427.31;5081198;28;20054;-77
2022/05/20 06:25:38;;;;;;;7.55;3.65;;;;;;;22.07;94.30;99428.34;5086178;28;20044;-77
2022/05/20 06:28:07;;;;;;;12.00;3.70;;;;;;;22.17;94.86;99436.00;5091798;28;20048;-76
2022/05/20 06:30:34;;;;;;;5.30;3.30;;;;;;;22.28;92.10;99435.88;5086796;28;20498;-77
2022/05/20 06:33:02;;;;;;;6.15;3.47;;;;;;;22.43;92.20;99424.22;5089876;28;20048;-76
2022/05/20 06:41:01;;;;;;;6.57;3.20;;;;;;;22.45;89.13;99413.69;5054185;28;20465;-77
2022/05/20 06:43:28;;;;;;;4.30;3.55;;;;;;;22.91;87.92;99426.44;5069906;28;20040;-75
2022/05/20 06:45:57;;;;;;;6.47;3.10;;;;;;;22.90;87.45;99428.38;5070518;28;20053;-77
2022/05/20 06:48:23;;;;;;;7.45;3.20;;;;;;;23.17;84.81;99426.75;5068794;28;20550;-77
2022/05/20 06:50:51;;;;;;;5.93;3.72;;;;;;;23.37;86.47;99429.72;5060829;28;20044;-77
2022/05/20 06:53:17;;;;;;;4.75;3.72;;;;;;;23.31;87.00;99412.19;5069538;28;20055;-77
2022/05/20 06:55:44;;;;;;;4.72;3.33;;;;;;;23.63;84.20;99416.91;5067933;28;20044;-77
2022/05/20 06:58:10;;;;;;;6.00;3.92;;;;;;;23.98;84.34;99418.31;5069695;28;20056;-77
2022/05/20 07:00:37;;;;;;;15.82;4.45;;;;;;;23.94;82.98;99419.13;5070238;28;20057;-77
2022/05/20 07:03:04;;;;;;;7.10;3.40;;;;;;;23.77;82.68;99399.78;5059869;28;20056;-77
2022/05/20 07:05:31;;;;;;;8.75;3.53;;;;;;;24.05;82.07;99420.03;5070272;28;20059;-77
2022/05/20 07:07:59;;;;;;;8.68;3.22;;;;;;;24.17;82.21;99423.44;5070326;28;20080;-77
2022/05/20 07:10:26;;;;;;;7.05;3.65;;;;;;;24.41;79.68;99423.00;5070235;28;20053;-77
2022/05/20 07:12:53;;;;;;;7.00;3.30;;;;;;;24.19;79.92;99419.28;5069540;28;20048;-78
2022/05/20 07:15:19;;;;;;;10.55;3.70;;;;;;;23.85;81.84;99414.06;5069963;28;20052;-78
2022/05/20 07:17:48;;;;;;;14.35;4.80;;;;;;;24.06;81.03;99421.69;5068967;28;20139;-78
2022/05/20 07:20:15;;;;;;;10.77;3.90;;;;;;;24.42;79.07;99417.19;5058084;28;20099;-78
2022/05/20 07:22:41;;;;;;;8.10;3.80;;;;;;;24.38;81.33;99414.09;5049428;28;20064;-78
2022/05/20 07:25:10;;;;;;;11.27;4.63;;;;;;;24.78;79.93;99414.59;5049823;28;20049;-79
2022/05/20 07:27:36;;;;;;;7.65;3.78;;;;;;;24.47;80.72;99411.63;5050295;28;20060;-79
2022/05/20 07:30:03;;;;;;;7.82;3.70;;;;;;;24.68;79.47;99415.38;5069034;28;20049;-79
2022/05/20 07:32:30;;;;;;;5.55;3.65;;;;;;;25.03;79.32;99422.16;5069710;28;20060;-78
2022/05/20 07:34:56;;;;;;;7.35;3.33;;;;;;;25.29;78.96;99401.91;5069834;28;20059;-79
2022/05/20 07:37:23;;;;;;;6.90;3.47;;;;;;;25.17;76.07;99407.72;5072327;28;20479;-78
2022/05/20 07:39:49;;;;;;;4.78;3.67;;;;;;;25.29;80.10;99407.47;5073351;28;20048;-79
2022/05/20 07:42:17;;;;;;;7.72;3.95;;;;;;;25.13;78.36;99406.59;5072049;28;20526;-79
2022/05/20 07:44:44;;;;;;;11.88;4.53;;;;;;;25.14;81.90;99398.00;5073568;28;20076;-79
2022/05/20 07:47:11;;;;;;;4.13;3.38;;;;;;;25.23;82.10;99404.69;5073638;28;20082;-79
2022/05/20 07:49:37;;;;;;;9.43;3.40;;;;;;;24.98;79.94;99383.22;5073553;28;20056;-79
2022/05/20 07:52:08;;;;;;;6.35;3.30;;;;;;;25.04;80.13;99396.00;5072833;28;20049;-79
2022/05/20 07:54:41;;;;;;;7.38;3.30;;;;;;;25.32;80.03;99402.19;5072085;28;20051;-79
2022/05/20 07:57:13;;;;;;;7.70;3.70;;;;;;;25.78;79.45;99404.97;5062114;28;20530;-79
2022/05/20 07:59:46;;;;;;;6.95;3.17;;;;;;;25.67;77.31;99377.44;5068584;28;20563;-79
2022/05/20 08:02:20;;;;;;;7.25;3.50;;;;;;;25.83;76.01;99394.97;5072791;28;20055;-79
2022/05/20 08:04:56;;;;;;;5.93;3.20;;;;;;;26.03;78.92;99406.13;5073241;28;20054;-80
2022/05/20 08:07:26;;;;;;;6.25;3.20;;;;;;;26.25;74.64;99402.97;5064226;28;20040;-79
2022/05/20 08:09:52;;;;;;;5.20;3.15;;;;;;;26.17;77.92;99375.72;5070569;28;20056;-80
2022/05/20 08:12:19;;;;;;;4.68;3.47;;;;;;;26.38;72.56;99387.63;5072562;28;20049;-79
2022/05/20 08:14:47;;;;;;;7.07;3.40;;;;;;;26.48;68.35;99392.31;5073119;28;20505;-79
2022/05/20 08:17:14;;;;;;;8.60;3.63;;;;;;;26.48;72.65;99372.78;5072427;28;20051;-79
2022/05/20 08:19:40;;;;;;;13.63;3.47;;;;;;;26.56;74.44;99393.69;5072814;28;20053;-80
2022/05/20 08:22:07;;;;;;;5.50;3.58;;;;;;;26.43;73.27;99370.88;5072553;28;20491;-79
2022/05/20 08:24:34;;;;;;;10.95;3.20;;;;;;;26.38;72.93;99370.06;5069684;28;20036;-79
2022/05/20 08:27:00;;;;;;;5.47;3.55;;;;;;;26.50;71.13;99374.19;5063966;28;20411;-80
2022/05/20 08:29:29;;;;;;;5.45;2.90;;;;;;;26.55;74.71;99362.19;5071958;28;20045;-79
2022/05/20 08:31:57;;;;;;;9.45;3.15;;;;;;;26.65;71.41;99362.13;5072688;28;20048;-79
2022/05/20 08:34:24;;;;;;;7.85;3.00;;;;;;;26.69;71.23;99368.00;5072434;28;20055;-80
2022/05/20 08:36:50;;;;;;;10.02;3.45;;;;;;;26.69;70.17;99362.41;5071923;28;20053;-79
2022/05/20 08:39:17;;;;;;;6.07;3.53;;;;;;;26.61;72.33;99352.66;5072616;28;20052;-80
2022/05/20 08:41:51;;;;;;;8.25;3.00;;;;;;;26.82;68.21;99360.97;5061534;28;20041;-80
2022/05/20 08:44:19;;;;;;;11.00;3.50;;;;;;;26.96;70.49;99350.00;5051817;28;20049;-80
2022/05/20 08:46:47;;;;;;;10.82;3.45;;;;;;;27.14;71.86;99351.25;5070865;28;20048;-81
2022/05/20 08:49:18;;;;;;;7.07;3.33;;;;;;;26.89;67.22;99350.31;5072541;28;20476;-79
2022/05/20 08:51:50;;;;;;;4.40;3.25;;;;;;;26.76;65.14;99325.88;5072484;28;20055;-79
2022/05/20 08:54:17;;;;;;;7.85;3.40;;;;;;;27.06;67.23;99337.94;5071677;28;20048;-79
2022/05/20 08:56:45;;;;;;;9.18;3.47;;;;;;;27.09;64.37;99343.75;5071136;28;20048;-79
2022/05/20 08:59:14;;;;;;;6.30;3.63;;;;;;;27.34;64.90;99339.13;5063661;28;20047;-79
2022/05/20 09:01:43;;;;;;;8.85;3.58;;;;;;;27.50;65.14;99323.91;5072225;28;20060;-79
2022/05/20 09:04:11;;;;;;;5.90;3.07;;;;;;;27.73;64.90;99318.66;5066990;28;20052;-79
2022/05/20 09:06:41;;;;;;;13.35;3.20;;;;;;;27.78;62.40;99324.22;5052906;28;20049;-79
2022/05/20 09:09:11;;;;;;;4.85;3.50;;;;;;;27.92;63.87;99329.09;5052135;28;20057;-79
2022/05/20 09:11:39;;;;;;;5.32;3.00;;;;;;;27.82;61.92;99322.50;5051901;28;20049;-80
2022/05/20 09:16:59;;;;;;;7.93;3.35;;;;;;;28.14;62.98;99315.47;5070390;28;20055;-79
2022/05/20 09:19:29;;;;;;;7.88;3.33;;;;;;;28.02;60.25;99318.66;5071740;28;20106;-79
2022/05/20 09:22:06;;;;;;;6.25;3.22;;;;;;;28.29;56.35;99311.66;5060842;28;20036;-80
2022/05/20 09:24:39;;;;;;;13.02;3.83;;;;;;;28.25;56.75;99307.78;5051653;28;20492;-80
2022/05/20 09:27:08;;;;;;;6.70;3.17;;;;;;;28.36;57.03;99302.88;5071196;28;20052;-79
2022/05/20 09:29:39;;;;;;;5.85;3.22;;;;;;;28.23;60.12;99298.88;5071782;28;20063;-79
2022/05/20 09:32:14;;;;;;;10.38;3.35;;;;;;;27.98;58.53;99288.81;5071065;28;20049;-79
2022/05/20 09:34:43;;;;;;;5.35;3.40;;;;;;;27.77;59.15;99293.78;5071818;28;20048;-79
2022/05/20 09:37:19;;;;;;;6.07;2.92;;;;;;;27.81;54.39;99292.06;5058378;28;20103;-79
2022/05/20 09:39:48;;;;;;;9.98;3.25;;;;;;;28.20;60.20;99279.91;5051454;28;20059;-79
2022/05/20 09:42:18;;;;;;;6.00;3.13;;;;;;;28.37;57.01;99283.00;5048528;28;20044;-79
2022/05/20 09:44:47;;;;;;;6.97;3.20;;;;;;;28.56;56.24;99285.84;5051641;28;20383;-79
2022/05/20 09:47:23;;;;;;;6.95;3.08;;;;;;;28.71;52.48;99270.81;5071010;28;20518;-79
2022/05/20 09:49:53;;;;;;;6.78;3.15;;;;;;;28.98;53.66;99272.09;5071359;28;20049;-79
2022/05/20 09:52:41;;;;;;;5.90;3.00;;;;;;;28.97;50.16;99267.63;5070312;28;20060;-79
2022/05/20 09:55:16;;;;;;;7.68;3.03;;;;;;;29.36;52.33;99258.03;5061251;28;20056;-78
2022/05/20 09:57:46;;;;;;;9.55;3.38;;;;;;;29.44;52.72;99262.91;5037504;28;20412;-78
2022/05/20 10:00:19;;;;;;;9.38;3.55;;;;;;;29.48;51.67;99261.16;5050472;28;20049;-79
2022/05/20 10:02:55;;;;;;;6.85;3.45;;;;;;;29.45;48.24;99266.56;5050294;28;20045;-78
2022/05/20 10:05:29;;;;;;;8.38;3.40;;;;;;;29.48;50.53;99263.13;5054896;28;20072;-79
2022/05/20 10:08:11;;;;;;;10.00;3.35;;;;;;;29.22;45.48;99249.59;5068226;28;20610;-78
2022/05/20 10:10:47;;;;;;;6.95;3.28;;;;;;;29.57;49.46;99252.03;5059897;28;20135;-78
2022/05/20 10:13:24;;;;;;;5.05;2.58;;;;;;;29.60;48.65;99251.44;5069617;28;20048;-79
2022/05/20 10:16:03;;;;;;;5.72;3.45;;;;;;;29.80;48.53;99237.00;5071011;28;20139;-78
2022/05/20 10:18:38;;;;;;;6.13;3.00;;;;;;;29.96;46.29;99231.13;5070958;28;20082;-79
2022/05/20 10:21:15;;;;;;;7.88;3.30;;;;;;;30.17;46.90;99228.69;5070978;28;20049;-79
2022/05/20 10:23:53;;;;;;;5.35;3.22;;;;;;;30.03;46.24;99225.09;5069619;28;20536;-79
2022/05/20 10:26:28;;;;;;;8.23;3.38;;;;;;;30.35;44.83;99224.94;5061014;28;20048;-79
2022/05/20 10:34:38;;;;;;;7.60;3.28;;;;;;;30.40;42.80;99195.97;5050952;28;20526;-78
2022/05/20 10:37:15;;;;;;;4.63;2.95;;;;;;;30.22;42.34;99211.78;5050658;28;20082;-79
2022/05/20 10:40:02;;;;;;;3.70;2.60;;;;;;;30.30;40.88;99213.00;5052759;28;20431;-78
2022/05/20 10:42:45;;;;;;;9.68;3.30;;;;;;;30.25;41.38;99210.34;5067855;28;20091;-79
2022/05/20 10:48:35;;;;;;;9.48;3.03;;;;;;;30.36;42.21;99215.38;5070518;28;20059;-79
2022/05/20 10:51:10;;;;;;;7.55;3.25;;;;;;;30.43;42.21;99211.34;5070158;28;20040;-78
2022/05/20 10:53:51;;;;;;;6.07;2.80;;;;;;;30.26;43.42;99200.75;5069540;28;20063;-78
2022/05/20 10:56:59;;;;;;;4.30;2.75;;;;;;;30.57;42.14;99206.50;5070570;28;20052;-79
2022/05/20 10:59:54;;;;;;;6.28;2.58;;;;;;;30.51;40.08;99197.38;5053170;28;20041;-79
2022/05/20 11:03:02;;;;;;;5.35;3.08;;;;;;;30.82;40.88;99193.84;5049097;28;20148;-78
2022/05/20 11:05:46;;;;;;;5.13;3.13;;;;;;;31.06;40.80;99179.50;5070215;28;20224;-79
2022/05/20 11:08:25;;;;;;;8.00;3.22;;;;;;;30.81;40.97;99171.72;5070038;28;20052;-79
2022/05/20 11:11:19;;;;;;;4.57;3.08;;;;;;;31.10;40.33;99167.63;5071867;28;20045;-79
2022/05/20 11:14:26;;;;;;;5.60;3.22;;;;;;;30.79;39.62;99176.78;5073653;28;20076;-79
2022/05/20 11:17:12;;;;;;;9.85;3.38;;;;;;;31.04;41.53;99156.53;5012073;28;20052;-79
2022/05/20 11:20:12;;;;;;;7.47;2.92;;;;;;;31.09;38.32;99149.13;5009030;28;20053;-80
2022/05/20 11:23:05;;;;;;;6.95;2.75;;;;;;;31.18;41.88;99133.13;5039977;28;20056;-79
2022/05/20 11:25:55;;;;;;;8.18;3.20;;;;;;;31.53;40.24;99124.88;5053917;28;20048;-79
2022/05/20 11:28:46;;;;;;;3.08;2.70;;;;;;;31.71;38.51;99117.34;5053886;28;20053;-79
2022/05/20 11:31:27;;;;;;;7.45;3.10;;;;;;;32.00;37.51;99105.47;5067338;28;20345;-79
2022/05/20 11:34:09;;;;;;;8.60;2.97;;;;;;;31.74;37.81;99106.28;5073174;28;20071;-79
2022/05/20 11:37:02;;;;;;;7.00;2.80;;;;;;;31.84;38.82;99091.09;5065818;28;20041;-79
2022/05/20 11:39:55;;;;;;;7.03;3.42;;;;;;;32.42;38.47;99091.78;5067578;28;20048;-77
2022/05/20 11:42:34;;;;;;;7.10;2.67;;;;;;;32.36;36.20;99089.47;5051161;28;20057;-79
2022/05/20 11:45:10;;;;;;;;;;;;;;;31.94;37.79;99082.31;5054417;28;20057;-76
2022/05/20 11:47:59;;;;;;;4.90;2.95;;;;;;;31.83;39.66;99060.50;5053852;28;19960;-76
2022/05/20 11:51:12;;;;;;;6.78;3.28;;;;;;;31.91;40.21;99045.63;5059727;28;20049;-79
2022/05/20 11:53:43;;;;;;;8.82;2.97;;;;;;;31.81;37.79;99040.31;5039410;28;20040;-78
2022/05/20 11:56:20;;;;;;;6.05;3.35;;;;;;;32.00;38.89;99040.81;5061858;28;20053;-79
2022/05/20 11:58:52;;;;;;;9.13;3.08;;;;;;;31.85;38.10;99030.06;5053560;28;20485;-79
2022/05/20 12:01:20;;;;;;;5.75;2.80;;;;;;;32.19;38.29;99023.66;5066529;28;20040;-79
2022/05/20 12:04:07;;;;;;;11.35;4.60;;;;;;;31.92;38.46;99010.75;5072783;28;20060;-79
2022/05/20 12:06:42;;;;;;;10.73;3.63;;;;;;;31.31;39.33;99016.25;5071931;28;20416;-79
2022/05/20 12:09:34;;;;;;;5.45;3.17;;;;;;;31.33;39.80;99002.69;5056372;28;20083;-79
2022/05/20 12:12:12;;;;;;;9.25;3.22;;;;;;;31.50;39.58;98999.94;5053386;28;20053;-79
2022/05/20 12:15:07;;;;;;;7.47;2.60;;;;;;;31.97;39.79;99001.31;5067994;28;20055;-79
2022/05/20 12:17:36;;;;;;;4.53;2.70;;;;;;;32.38;38.66;98986.69;5050017;28;20049;-77
2022/05/20 12:26:22;;;;;;;4.75;3.08;;;;;;;32.28;37.87;98967.38;5072748;28;20278;-79